Fort Cobb, OK (73038)

2:37 AM CDT on July 28, 2014 (GMT -0500)
Peck's country (KOKANADA2) Elev 1255 ft | 35.10 °N, 98.32 °W | Change Station

Current weather conditions updated 7 minutes ago

Overcast
Overcast
73.9 °F
Feels Like 77 °F
N
0.0
Wind Variable Wind from North
Gusts 0.0 mph

Today is forecast to be Much Cooler than yesterday.

Today
High -- | Low -- °F
--% Chance of Precip.
Yesterday
High -- | Low -- °F
Precip. -- in
6:40 AM 8:40 PM
New Moon, 2% visible
Pressure 30.14 in
Visibility 10.0 miles
Clouds Mostly Cloudy 7000 ft
Overcast 8500 ft
Heat Index 77 °F
Dew Point 59 °F
Humidity 60%
Rainfall 0.00 in
Snow Depth Not available.
UV 0 out of 12
Pollen 5.90 out of 12
Air Quality Not available.
Flu Activity Not available.
METAR KCHK 280715Z AUTO 00000KT 10SM BKN070 OVC085 25/17 A3014 RMK AO2

More Conditions Fewer Conditions

Pressure 30.14 in
Visibility 10.0 miles
Clouds Mostly Cloudy 7000 ft
Overcast 8500 ft
Heat Index 77 °F
Dew Point 59 °F
Humidity 60%
Rainfall 0.00 in
Snow Depth Not available.
UV 0 out of 12
Pollen 5.90 out of 12
Air Quality Not available.
Flu Activity Not available.
METAR KCHK 280715Z AUTO 00000KT 10SM BKN070 OVC085 25/17 A3014 RMK AO2

More Conditions Fewer Conditions

10-Day Weather Forecast

Almanac

Astronomy

Jul. 28, 2014 Rise Set
Actual Time 6:40 AM CDT 8:40 PM CDT
Civil Twilight 6:11 AM CDT 9:08 PM CDT
Nautical Twilight 5:37 AM CDT 9:42 PM CDT
Astronomical Twilight 5:00 AM CDT 10:18 PM CDT
Moon 8:16 AM CDT 9:29 PM CDT
Length of Visible Light 14h 56m
Length of Day
14h 00m
Tomorrow will be 1m 34s shorter.
New Moon, 2% of the Moon is Illuminated
Today
New Moon
Aug 3
First Quarter
Aug 10
Full
Aug 17
Last Quarter
Aug 25
New

Today's Extremes

State Highs State Lows

Community

WunderPhotos

Upload Photos

1,738,292 photos uploaded!

Nearby

Snow Depth

Station Depth Elevation
No new snow has been reported.

Earthquake Activity

City Distance Mag. Time & Date
Langston, Oklahoma 84 miles 3.3 9:02 PM CDT
2014-07-22
Guthrie, Oklahoma 75 miles 2.5 7:25 PM CDT
2014-07-22
Helena, Oklahoma 108 miles 2.6 12:50 PM CDT
2014-07-22
Guthrie, Oklahoma 76 miles 2.6 12:28 PM CDT
2014-07-22
Minimum magnitude displayed is 2.5.

Coastal Water Temperatures

Place Temperature
No Stations Reporting

Nearby Weather Stations

Station Location Temp. Heat Index Dew Point Humidity Wind Precip. Elev Updated Type
Peck's country, Anadarko, OK 73.9 °F 77 °F 59 °F 60% North  at  0.0 mph 0.00 in / hr 1255 ft 2:30 AM CDT Normal
Carnegie, Carnegie, OK 74.3 °F 77 °F 54 °F 50% ESE  at  5.4 mph 0.00 in / hr 1358 ft 2:37 AM CDT Rapid Fire
Fletcher, Fletcher, OK 70.9 °F - 66 °F 86% East  at  5.3 mph - / hr 1375 ft 2:25 AM CDT Normal
Rock Bridge, Elgin, OK 74.3 °F 76 °F 62 °F 66% ESE  at  7.3 mph - / hr 1257 ft 2:29 AM CDT Normal

Show More Stations Show Fewer Stations